Time;durP1;ratioP1;P1;durP2;ratioP2;P2;SDS_P1;SDS_P2;PMS_P1;PMS_P2;Temp;Humidity;BMP_temperature;BMP_pressure;BME280_temperature;BME280_humidity;BME280_pressure;Samples;Min_cycle;Max_cycle;Signal;HPM_P1;HPM_P2
2021/11/14 00:02:18;;;;;;;;;;;;;;;13.56;100.00;99621.09;5097650;28;19924;-79
2021/11/14 00:04:48;;;;;;;;;;;;;;;13.54;100.00;99632.78;5115439;28;19924;-79
2021/11/14 00:07:16;;;;;;;;;;;;;;;13.86;100.00;99623.72;5115357;28;19924;-79
2021/11/14 00:09:44;;;;;;;;;;;;;;;13.81;100.00;99616.59;5115044;28;19946;-79
2021/11/14 00:12:12;;;;;;;;;;;;;;;13.84;100.00;99614.94;5115454;28;19967;-79
2021/11/14 00:14:39;;;;;;;;;;;;;;;13.72;100.00;99618.41;5115449;28;19924;-79
2021/11/14 00:17:07;;;;;;;;;;;;;;;13.55;100.00;99617.53;5115360;28;19928;-78
2021/11/14 00:19:34;;;;;;;;;;;;;;;13.55;100.00;99613.91;5115094;28;19930;-79
2021/11/14 00:22:02;;;;;;;;;;;;;;;13.43;100.00;99622.97;5115044;28;19930;-79
2021/11/14 00:24:29;;;;;;;;;;;;;;;13.61;100.00;99617.81;5114743;28;20001;-79
2021/11/14 00:26:56;;;;;;;;;;;;;;;13.47;100.00;99629.31;5080361;28;19924;-79
2021/11/14 00:29:23;;;;;;;;;;;;;;;13.81;100.00;99627.06;5079508;28;20500;-79
2021/11/14 00:31:50;;;;;;;;;;;;;;;13.86;100.00;99640.56;5096874;28;19930;-78
2021/11/14 00:34:17;;;;;;;;;;;;;;;13.82;100.00;99639.84;5096665;28;19935;-79
2021/11/14 00:36:45;;;;;;;;;;;;;;;13.65;100.00;99641.00;5114705;28;19931;-79
2021/11/14 00:39:16;;;;;;;;;;;;;;;13.51;100.00;99638.47;5096529;28;19924;-79
2021/11/14 00:41:43;;;;;;;;;;;;;;;13.57;100.00;99631.91;5114906;28;19951;-78
2021/11/14 00:44:10;;;;;;;;;;;;;;;13.38;100.00;99645.91;5096544;28;19931;-79
2021/11/14 00:46:39;;;;;;;;;;;;;;;13.30;100.00;99650.09;5096577;28;19951;-79
2021/11/14 00:49:06;;;;;;;;;;;;;;;12.78;100.00;99658.91;5079899;28;19973;-78
2021/11/14 00:51:34;;;;;;;;;;;;;;;12.56;100.00;99660.44;5114299;28;19924;-78
2021/11/14 00:54:01;;;;;;;;;;;;;;;12.30;100.00;99655.59;5114690;28;19923;-78
2021/11/14 00:56:29;;;;;;;;;;;;;;;12.60;100.00;99661.19;5114744;28;19924;-78
2021/11/14 00:58:57;;;;;;;;;;;;;;;12.71;100.00;99650.59;5096487;28;20022;-79
2021/11/14 01:01:25;;;;;;;;;;;;;;;12.77;100.00;99658.56;5114427;28;20018;-78
2021/11/14 01:03:52;;;;;;;;;;;;;;;12.79;100.00;99659.72;5079414;28;20378;-79
2021/11/14 01:06:21;;;;;;;;;;;;;;;12.91;100.00;99669.53;5079787;28;19924;-78
2021/11/14 01:08:48;;;;;;;;;;;;;;;12.92;100.00;99659.91;5114447;28;19928;-78
2021/11/14 01:11:15;;;;;;;;;;;;;;;12.43;100.00;99662.22;5114434;28;20367;-78
2021/11/14 01:13:42;;;;;;;;;;;;;;;12.51;100.00;99658.13;5114430;28;19924;-78
2021/11/14 01:16:17;;;;;;;;;;;;;;;12.38;100.00;99657.09;5079228;28;19924;-78
2021/11/14 01:18:44;;;;;;;;;;;;;;;12.18;100.00;99667.38;5096426;28;19969;-78
2021/11/14 01:21:12;;;;;;;;;;;;;;;12.10;100.00;99651.88;5114071;28;19924;-78
2021/11/14 01:23:42;;;;;;;;;;;;;;;12.03;100.00;99657.56;5063830;28;19924;-78
2021/11/14 01:26:09;;;;;;;;;;;;;;;12.34;100.00;99647.94;5114202;28;19927;-78
2021/11/14 01:28:37;;;;;;;;;;;;;;;12.35;100.00;99646.75;5114270;28;20015;-78
2021/11/14 01:31:04;;;;;;;;;;;;;;;12.08;100.00;99661.91;5095910;28;19931;-78
2021/11/14 01:33:31;;;;;;;;;;;;;;;12.39;100.00;99661.50;5095944;28;19960;-78
2021/11/14 01:35:59;;;;;;;;;;;;;;;12.35;100.00;99657.94;5113852;28;19927;-78
2021/11/14 01:38:27;;;;;;;;;;;;;;;12.62;100.00;99655.97;5096286;28;19924;-78
2021/11/14 01:40:56;;;;;;;;;;;;;;;12.62;100.00;99653.16;5116166;28;19969;-78
2021/11/14 01:43:25;;;;;;;;;;;;;;;12.45;100.00;99659.81;5099939;28;20010;-78
2021/11/14 01:45:52;;;;;;;;;;;;;;;12.80;100.00;99661.28;5118216;28;19928;-79
2021/11/14 01:48:20;;;;;;;;;;;;;;;12.61;100.00;99657.19;5118234;28;19924;-79
2021/11/14 01:50:47;;;;;;;;;;;;;;;12.31;100.00;99668.41;5099778;28;20244;-79
2021/11/14 01:53:15;;;;;;;;;;;;;;;12.65;100.00;99671.94;5118196;28;19924;-78
2021/11/14 01:55:43;;;;;;;;;;;;;;;12.86;100.00;99670.03;5083076;28;19923;-79
2021/11/14 01:58:12;;;;;;;;;;;;;;;12.52;100.00;99670.94;5082766;28;19947;-79
2021/11/14 02:00:53;;;;;;;;;;;;;;;12.74;100.00;99672.19;5117869;28;19928;-79
2021/11/14 02:03:20;;;;;;;;;;;;;;;12.14;100.00;99677.84;5117807;28;19930;-79
2021/11/14 02:05:47;;;;;;;;;;;;;;;12.14;100.00;99683.44;5117638;28;19924;-78
2021/11/14 02:08:15;;;;;;;;;;;;;;;12.43;100.00;99695.09;5099766;28;19923;-79
2021/11/14 02:10:43;;;;;;;;;;;;;;;12.21;100.00;99694.56;5082524;28;19924;-79
2021/11/14 02:13:10;;;;;;;;;;;;;;;11.92;100.00;99714.94;5099595;28;20010;-79
2021/11/14 02:15:38;;;;;;;;;;;;;;;11.94;100.00;99710.50;5099294;28;19923;-79
2021/11/14 02:18:07;;;;;;;;;;;;;;;11.78;100.00;99717.88;5117541;28;19931;-79
2021/11/14 02:20:35;;;;;;;;;;;;;;;11.95;100.00;99702.91;5065615;28;19931;-79
2021/11/14 02:23:05;;;;;;;;;;;;;;;12.05;100.00;99713.16;5099273;28;20276;-79
2021/11/14 02:25:33;;;;;;;;;;;;;;;11.56;100.00;99714.47;5099151;28;20267;-79
2021/11/14 02:27:59;;;;;;;;;;;;;;;11.79;100.00;99711.06;5117294;28;20442;-79
2021/11/14 02:30:27;;;;;;;;;;;;;;;11.73;100.00;99712.72;5082223;28;19924;-79
2021/11/14 02:32:54;;;;;;;;;;;;;;;11.60;100.00;99715.22;5098871;28;19924;-79
2021/11/14 02:35:32;;;;;;;;;;;;;;;11.66;100.00;99712.81;5099042;28;20030;-80
2021/11/14 02:37:59;;;;;;;;;;;;;;;11.93;100.00;99714.50;5117224;28;19931;-78
2021/11/14 02:40:28;;;;;;;;;;;;;;;11.95;100.00;99706.47;5082550;28;19963;-78
2021/11/14 02:42:55;;;;;;;;;;;;;;;12.00;100.00;99710.81;5098887;28;19931;-78
2021/11/14 02:45:25;;;;;;;;;;;;;;;12.11;100.00;99717.09;5116986;28;20008;-78
2021/11/14 02:47:53;;;;;;;;;;;;;;;11.59;100.00;99719.22;5098435;28;19931;-78
2021/11/14 02:50:20;;;;;;;;;;;;;;;11.82;100.00;99741.81;5116946;28;19929;-78
2021/11/14 02:52:48;;;;;;;;;;;;;;;11.61;100.00;99738.41;5098571;28;19931;-78
2021/11/14 02:55:16;;;;;;;;;;;;;;;11.25;100.00;99732.34;5116754;28;19924;-78
2021/11/14 02:57:44;;;;;;;;;;;;;;;11.26;100.00;99731.13;5116731;28;19927;-78
2021/11/14 03:00:16;;;;;;;;;;;;;;;10.97;100.00;99721.34;5098498;28;19923;-78
2021/11/14 03:02:43;;;;;;;;;;;;;;;11.15;100.00;99724.81;5116266;28;19930;-78
2021/11/14 03:05:13;;;;;;;;;;;;;;;11.30;100.00;99729.06;5098374;28;19924;-78
2021/11/14 03:07:40;;;;;;;;;;;;;;;11.24;100.00;99733.53;5098446;28;19928;-78
2021/11/14 03:10:08;;;;;;;;;;;;;;;11.51;100.00;99730.91;5116531;28;19952;-78
2021/11/14 03:12:35;;;;;;;;;;;;;;;11.60;100.00;99734.81;5098637;28;20015;-78
2021/11/14 03:15:17;;;;;;;;;;;;;;;11.63;100.00;99736.03;5100644;28;19931;-78
2021/11/14 03:17:45;;;;;;;;;;;;;;;11.74;100.00;99737.50;5116284;28;19946;-78
2021/11/14 03:20:12;;;;;;;;;;;;;;;11.66;100.00;99735.97;5116276;28;20000;-78
2021/11/14 03:22:39;;;;;;;;;;;;;;;11.27;100.00;99741.09;5098022;28;20251;-78
2021/11/14 03:25:06;;;;;;;;;;;;;;;11.03;100.00;99746.91;5116663;28;19947;-78
2021/11/14 03:27:33;;;;;;;;;;;;;;;11.33;100.00;99739.44;5097893;28;20353;-78
2021/11/14 03:30:00;;;;;;;;;;;;;;;11.44;100.00;99737.34;5097766;28;20355;-78
2021/11/14 03:32:27;;;;;;;;;;;;;;;11.41;100.00;99740.97;5115855;28;19930;-78
2021/11/14 03:34:54;;;;;;;;;;;;;;;11.29;100.00;99740.69;5081042;28;19923;-78
2021/11/14 03:37:22;;;;;;;;;;;;;;;10.89;100.00;99740.19;5116063;28;19945;-78
2021/11/14 03:39:49;;;;;;;;;;;;;;;11.14;100.00;99734.41;5097755;28;20367;-78
2021/11/14 03:42:16;;;;;;;;;;;;;;;11.17;100.00;99741.97;5098029;28;20290;-78
2021/11/14 03:44:44;;;;;;;;;;;;;;;10.69;100.00;99741.13;5081007;28;20370;-78
2021/11/14 03:47:11;;;;;;;;;;;;;;;11.08;100.00;99738.84;5115668;28;20359;-78
2021/11/14 03:49:39;;;;;;;;;;;;;;;11.01;100.00;99732.53;5097854;28;19931;-78
2021/11/14 03:52:09;;;;;;;;;;;;;;;10.07;100.00;99740.19;5115793;28;19923;-78
2021/11/14 03:54:37;;;;;;;;;;;;;;;10.03;100.00;99739.38;5115847;28;19968;-78
2021/11/14 03:57:17;;;;;;;;;;;;;;;10.27;100.00;99744.13;5097779;28;19943;-78
2021/11/14 03:59:44;;;;;;;;;;;;;;;10.33;100.00;99748.88;5097374;28;20027;-78
2021/11/14 04:02:11;;;;;;;;;;;;;;;10.78;100.00;99747.06;5097104;28;19977;-78
2021/11/14 04:04:39;;;;;;;;;;;;;;;10.91;100.00;99746.16;5115053;28;19923;-78
2021/11/14 04:07:06;;;;;;;;;;;;;;;10.88;100.00;99741.41;5080458;28;20341;-78
2021/11/14 04:09:33;;;;;;;;;;;;;;;10.85;100.00;99742.22;5097421;28;20386;-78
2021/11/14 04:12:03;;;;;;;;;;;;;;;10.80;100.00;99748.22;5115623;28;20014;-78
2021/11/14 04:14:30;;;;;;;;;;;;;;;10.67;100.00;99747.13;5097227;28;19950;-78
2021/11/14 04:16:57;;;;;;;;;;;;;;;9.98;100.00;99745.38;5097734;28;20416;-78
2021/11/14 04:19:26;;;;;;;;;;;;;;;10.15;100.00;99752.91;5115320;28;19923;-78
2021/11/14 04:21:54;;;;;;;;;;;;;;;10.27;100.00;99758.09;5097124;28;19931;-78
2021/11/14 04:24:22;;;;;;;;;;;;;;;10.55;100.00;99760.75;5097026;28;19923;-78
2021/11/14 04:26:49;;;;;;;;;;;;;;;10.75;100.00;99759.06;5115077;28;20489;-78
2021/11/14 04:29:16;;;;;;;;;;;;;;;10.90;100.00;99763.34;5114967;28;19953;-78
2021/11/14 04:31:43;;;;;;;;;;;;;;;10.88;100.00;99774.13;5097063;28;20305;-78
2021/11/14 04:34:10;;;;;;;;;;;;;;;10.56;100.00;99768.72;5095159;28;19934;-78
2021/11/14 04:36:37;;;;;;;;;;;;;;;10.61;100.00;99773.09;5095115;28;19931;-78
2021/11/14 04:39:04;;;;;;;;;;;;;;;10.50;100.00;99783.50;5076285;28;20010;-78
2021/11/14 04:41:32;;;;;;;;;;;;;;;10.44;100.00;99783.16;5094406;28;19970;-78
2021/11/14 04:43:59;;;;;;;;;;;;;;;9.74;100.00;99788.09;5076283;28;19924;-78
2021/11/14 04:46:26;;;;;;;;;;;;;;;10.41;100.00;99785.94;5094546;28;19923;-78
2021/11/14 04:48:53;;;;;;;;;;;;;;;10.14;100.00;99773.69;5094452;28;19925;-78
2021/11/14 04:51:20;;;;;;;;;;;;;;;10.68;100.00;99787.03;5076437;28;19924;-78
2021/11/14 04:53:49;;;;;;;;;;;;;;;10.48;100.00;99794.31;5076229;28;19924;-78
2021/11/14 04:56:16;;;;;;;;;;;;;;;10.71;100.00;99792.59;5094302;28;19924;-78
2021/11/14 04:58:44;;;;;;;;;;;;;;;10.38;100.00;99795.13;5094183;28;19978;-78
2021/11/14 05:01:11;;;;;;;;;;;;;;;9.81;100.00;99799.25;5094248;28;19931;-78
2021/11/14 05:03:39;;;;;;;;;;;;;;;9.96;100.00;99803.59;5094273;28;19924;-78
2021/11/14 05:06:09;;;;;;;;;;;;;;;9.95;100.00;99810.41;5093161;28;20264;-78
2021/11/14 05:08:37;;;;;;;;;;;;;;;10.69;100.00;99800.59;5093865;28;19966;-78
2021/11/14 05:11:04;;;;;;;;;;;;;;;10.77;100.00;99790.97;5092643;28;19924;-78
2021/11/14 05:13:31;;;;;;;;;;;;;;;10.62;100.00;99783.88;5093827;28;19934;-78
2021/11/14 05:15:58;;;;;;;;;;;;;;;11.03;100.00;99794.44;5075876;28;19924;-78
2021/11/14 05:18:26;;;;;;;;;;;;;;;11.10;100.00;99788.78;5059309;28;19931;-78
2021/11/14 05:20:53;;;;;;;;;;;;;;;11.46;100.00;99784.53;5094062;28;19969;-77
2021/11/14 05:23:20;;;;;;;;;;;;;;;11.45;100.00;99780.91;5075665;28;19930;-77
2021/11/14 05:25:47;;;;;;;;;;;;;;;11.56;100.00;99778.03;5093895;28;19939;-78
2021/11/14 05:28:14;;;;;;;;;;;;;;;11.29;100.00;99777.84;5093807;28;20061;-78
2021/11/14 05:30:43;;;;;;;;;;;;;;;11.48;100.00;99785.69;5093563;28;19924;-78
2021/11/14 05:33:10;;;;;;;;;;;;;;;11.78;100.00;99788.69;5092719;28;19924;-77
2021/11/14 05:35:38;;;;;;;;;;;;;;;11.72;100.00;99787.50;5075824;28;19931;-78
2021/11/14 05:38:05;;;;;;;;;;;;;;;11.86;100.00;99795.78;5076073;28;19971;-78
2021/11/14 05:40:33;;;;;;;;;;;;;;;11.90;100.00;99796.56;5093641;28;19931;-78
2021/11/14 05:43:00;;;;;;;;;;;;;;;11.60;100.00;99799.19;5093318;28;19924;-78
2021/11/14 05:45:28;;;;;;;;;;;;;;;11.27;100.00;99802.63;5093739;28;20015;-78
2021/11/14 05:47:55;;;;;;;;;;;;;;;11.68;100.00;99811.13;5075726;28;19947;-78
2021/11/14 05:50:22;;;;;;;;;;;;;;;11.74;100.00;99804.69;5075625;28;20279;-78
2021/11/14 05:52:50;;;;;;;;;;;;;;;11.81;100.00;99804.66;5093613;28;19924;-78
2021/11/14 05:55:17;;;;;;;;;;;;;;;11.71;100.00;99804.72;5093509;28;20428;-78
2021/11/14 06:00:23;;;;;;;;;;;;;;;11.95;100.00;99807.28;5093628;28;19947;-78
2021/11/14 06:02:57;;;;;;;;;;;;;;;11.84;100.00;99803.81;5058908;28;19924;-78
2021/11/14 06:05:25;;;;;;;;;;;;;;;11.81;100.00;99803.84;5093436;28;19946;-78
2021/11/14 06:07:53;;;;;;;;;;;;;;;11.75;100.00;99806.31;5075486;28;19924;-78
2021/11/14 06:10:20;;;;;;;;;;;;;;;11.67;100.00;99807.56;5104207;28;19924;-78
2021/11/14 06:12:47;;;;;;;;;;;;;;;11.75;100.00;99811.91;5107695;28;19946;-78
2021/11/14 06:15:16;;;;;;;;;;;;;;;11.88;100.00;99826.97;5093534;28;19924;-78
2021/11/14 06:17:43;;;;;;;;;;;;;;;11.79;100.00;99832.25;5090888;28;20038;-78
2021/11/14 06:20:11;;;;;;;;;;;;;;;11.85;100.00;99827.81;5105155;28;19930;-78
2021/11/14 06:22:39;;;;;;;;;;;;;;;11.96;100.00;99836.91;5110100;28;19924;-78
2021/11/14 06:25:06;;;;;;;;;;;;;;;12.05;100.00;99839.22;5095266;28;20333;-78
2021/11/14 06:27:33;;;;;;;;;;;;;;;11.98;100.00;99837.28;5116244;28;19931;-78
2021/11/14 06:30:02;;;;;;;;;;;;;;;12.07;100.00;99837.59;5065577;28;19923;-78
2021/11/14 06:32:29;;;;;;;;;;;;;;;11.92;100.00;99843.75;5117124;28;19924;-78
2021/11/14 06:34:56;;;;;;;;;;;;;;;12.09;100.00;99843.56;5098963;28;19924;-78
2021/11/14 06:37:23;;;;;;;;;;;;;;;12.10;100.00;99845.16;5098934;28;19930;-78
2021/11/14 06:39:50;;;;;;;;;;;;;;;11.21;100.00;99851.84;5098681;28;19924;-78
2021/11/14 06:42:17;;;;;;;;;;;;;;;11.66;100.00;99859.16;5116949;28;20378;-78
2021/11/14 06:44:44;;;;;;;;;;;;;;;11.84;100.00;99848.63;5098517;28;19924;-78
2021/11/14 06:47:12;;;;;;;;;;;;;;;11.95;100.00;99857.69;5098828;28;20213;-78
2021/11/14 06:49:39;;;;;;;;;;;;;;;12.10;100.00;99864.75;5081839;28;19924;-78
2021/11/14 06:52:07;;;;;;;;;;;;;;;12.07;100.00;99860.00;5098892;28;20272;-78
2021/11/14 06:54:35;;;;;;;;;;;;;;;12.16;100.00;99865.91;5116266;28;19923;-78
2021/11/14 06:57:02;;;;;;;;;;;;;;;12.16;100.00;99862.31;5116787;28;19928;-78
2021/11/14 06:59:29;;;;;;;;;;;;;;;11.94;100.00;99870.13;5116577;28;19931;-78
2021/11/14 07:01:58;;;;;;;;;;;;;;;11.85;100.00;99875.41;5116660;28;20367;-78
2021/11/14 07:04:25;;;;;;;;;;;;;;;12.01;100.00;99883.28;5116259;28;19924;-78
2021/11/14 07:06:52;;;;;;;;;;;;;;;11.99;100.00;99880.88;5116413;28;19924;-78
2021/11/14 07:09:19;;;;;;;;;;;;;;;11.90;100.00;99877.78;5116116;28;19923;-78
2021/11/14 07:11:47;;;;;;;;;;;;;;;11.80;100.00;99887.03;5116441;28;19923;-78
2021/11/14 07:14:14;;;;;;;;;;;;;;;11.90;100.00;99886.16;5079909;28;19938;-78
2021/11/14 07:16:43;;;;;;;;;;;;;;;12.02;100.00;99893.25;5081462;28;19947;-78
2021/11/14 07:19:10;;;;;;;;;;;;;;;11.93;100.00;99899.34;5115574;28;19931;-78
2021/11/14 07:21:37;;;;;;;;;;;;;;;11.69;100.00;99897.50;5098012;28;20496;-78
2021/11/14 07:24:04;;;;;;;;;;;;;;;11.67;100.00;99899.94;5097943;28;19924;-78
2021/11/14 07:26:31;;;;;;;;;;;;;;;11.62;100.00;99905.97;5116253;28;19930;-78
2021/11/14 07:28:58;;;;;;;;;;;;;;;10.32;100.00;99906.50;5097756;28;19931;-78
2021/11/14 07:31:25;;;;;;;;;;;;;;;10.51;100.00;99919.25;5097762;28;20057;-78
2021/11/14 07:33:52;;;;;;;;;;;;;;;11.46;100.00;99922.44;5097878;28;19924;-78
2021/11/14 07:36:19;;;;;;;;;;;;;;;11.65;100.00;99919.16;5097553;28;19931;-78
2021/11/14 07:38:47;;;;;;;;;;;;;;;11.84;100.00;99920.63;5115727;28;19947;-78
2021/11/14 07:41:14;;;;;;;;;;;;;;;12.09;100.00;99922.00;5097624;28;19948;-78
2021/11/14 07:43:41;;;;;;;;;;;;;;;11.88;100.00;99933.38;5115616;28;20371;-78
2021/11/14 07:46:09;;;;;;;;;;;;;;;12.24;100.00;99923.47;5097602;28;19924;-78
2021/11/14 07:48:37;;;;;;;;;;;;;;;12.31;100.00;99929.00;5115804;28;20354;-78
2021/11/14 07:51:04;;;;;;;;;;;;;;;12.00;100.00;99932.88;5115837;28;20000;-78
2021/11/14 07:53:31;;;;;;;;;;;;;;;12.31;100.00;99923.41;5115372;28;19924;-80
2021/11/14 07:55:58;;;;;;;;;;;;;;;12.49;100.00;99923.25;5115959;28;20294;-80
2021/11/14 07:58:26;;;;;;;;;;;;;;;12.63;100.00;99915.47;5097379;28;19930;-76
2021/11/14 08:00:53;;;;;;;;;;;;;;;12.65;100.00;99918.66;5114823;28;19924;-76
2021/11/14 08:03:23;;;;;;;;;;;;;;;12.75;100.00;99931.75;5096692;28;20014;-76
2021/11/14 08:05:50;;;;;;;;;;;;;;;12.77;100.00;99932.16;5114599;28;19947;-76
2021/11/14 08:08:17;;;;;;;;;;;;;;;12.95;100.00;99936.78;5114473;28;19931;-76
2021/11/14 08:10:44;;;;;;;;;;;;;;;12.23;100.00;99933.09;5090440;28;19931;-76
2021/11/14 08:13:11;;;;;;;;;;;;;;;12.19;100.00;99940.72;5076163;28;19951;-76
2021/11/14 08:15:38;;;;;;;;;;;;;;;11.81;100.00;99944.66;5093960;28;20404;-76
2021/11/14 08:18:06;;;;;;;;;;;;;;;11.61;100.00;99943.53;5094387;28;20409;-76
2021/11/14 08:20:35;;;;;;;;;;;;;;;11.45;100.00;99953.66;5097893;28;20339;-76
2021/11/14 08:23:03;;;;;;;;;;;;;;;11.53;100.00;99955.97;5065264;28;20376;-76
2021/11/14 08:25:31;;;;;;;;;;;;;;;11.79;100.00;99958.25;5114198;28;20408;-76
2021/11/14 08:27:59;;;;;;;;;;;;;;;12.30;100.00;99961.06;5092532;28;19924;-76
2021/11/14 08:30:27;;;;;;;;;;;;;;;11.52;100.00;99959.19;5094825;28;20383;-76
2021/11/14 08:32:54;;;;;;;;;;;;;;;11.42;100.00;99960.06;5075575;28;20351;-76
2021/11/14 08:35:22;;;;;;;;;;;;;;;11.85;100.00;99967.81;5094880;28;20013;-76
2021/11/14 08:37:50;;;;;;;;;;;;;;;11.69;100.00;99972.31;5093703;28;20355;-76
2021/11/14 08:40:18;;;;;;;;;;;;;;;12.69;100.00;99980.31;5075688;28;20371;-76
2021/11/14 08:42:45;;;;;;;;;;;;;;;13.09;100.00;99973.88;5093953;28;20278;-76
2021/11/14 08:45:12;;;;;;;;;;;;;;;13.36;100.00;99963.53;5095508;28;19951;-76
2021/11/14 08:47:40;;;;;;;;;;;;;;;13.08;100.00;99958.28;5114133;28;19928;-76
2021/11/14 08:50:09;;;;;;;;;;;;;;;12.35;100.00;99963.41;5101328;28;19924;-76
2021/11/14 08:52:36;;;;;;;;;;;;;;;12.09;100.00;99966.03;5093440;28;19924;-76
2021/11/14 08:55:04;;;;;;;;;;;;;;;11.76;100.00;99973.06;5093557;28;19956;-76
2021/11/14 08:57:31;;;;;;;;;;;;;;;11.82;100.00;99968.63;5094241;28;19928;-76
2021/11/14 08:59:58;;;;;;;;;;;;;;;11.72;100.00;99966.69;5076012;28;19931;-76
2021/11/14 09:02:26;;;;;;;;;;;;;;;12.74;100.00;99972.25;5093957;28;19974;-76
2021/11/14 09:04:53;;;;;;;;;;;;;;;13.06;100.00;99973.91;5093749;28;20027;-76
2021/11/14 09:07:20;;;;;;;;;;;;;;;12.74;100.00;99977.84;5093906;28;20298;-77
2021/11/14 09:09:47;;;;;;;;;;;;;;;12.62;100.00;99978.38;5093983;28;19931;-76
2021/11/14 09:12:14;;;;;;;;;;;;;;;12.70;100.00;99976.28;5079647;28;19930;-77
2021/11/14 09:14:42;;;;;;;;;;;;;;;12.94;100.00;99982.84;5094493;28;20034;-78
2021/11/14 09:17:09;;;;;;;;;;;;;;;13.47;100.00;99983.84;5113392;28;20407;-78
2021/11/14 09:20:02;;;;;;;;;;;;;;;13.26;100.00;99986.13;5095244;28;19973;-78
2021/11/14 09:22:29;;;;;;;;;;;;;;;13.45;100.00;99993.91;5093819;28;20448;-78
2021/11/14 09:24:57;;;;;;;;;;;;;;;13.68;100.00;99993.97;5075613;28;19986;-78
2021/11/14 09:27:24;;;;;;;;;;;;;;;13.49;100.00;100003.06;5093736;28;19933;-78
2021/11/14 09:29:51;;;;;;;;;;;;;;;13.19;100.00;100001.00;5075626;28;19924;-78
2021/11/14 09:32:18;;;;;;;;;;;;;;;13.07;100.00;99995.16;5093745;28;19924;-78
2021/11/14 09:34:45;;;;;;;;;;;;;;;13.28;100.00;100003.34;5087883;28;20004;-78
2021/11/14 09:37:13;;;;;;;;;;;;;;;13.00;100.00;100007.25;5113423;28;19934;-78
2021/11/14 09:39:40;;;;;;;;;;;;;;;12.76;100.00;99999.88;5113788;28;19927;-78
2021/11/14 09:42:08;;;;;;;;;;;;;;;12.72;100.00;100011.13;5114044;28;19955;-78
2021/11/14 09:44:35;;;;;;;;;;;;;;;13.35;100.00;100004.03;5111283;28;19927;-80
2021/11/14 09:47:03;;;;;;;;;;;;;;;13.41;100.00;100019.22;5112325;28;19927;-79
2021/11/14 09:49:32;;;;;;;;;;;;;;;13.18;100.00;100013.47;5099789;28;20527;-79
2021/11/14 09:52:00;;;;;;;;;;;;;;;13.04;100.00;100015.66;5107142;28;20386;-79
2021/11/14 09:54:27;;;;;;;;;;;;;;;13.26;100.00;100014.19;5110643;28;19965;-79
2021/11/14 09:56:55;;;;;;;;;;;;;;;12.63;100.00;100008.00;5092490;28;19924;-79
2021/11/14 09:59:22;;;;;;;;;;;;;;;13.08;100.00;100017.19;5110116;28;19924;-79
2021/11/14 10:01:51;;;;;;;;;;;;;;;13.36;100.00;100021.69;5112885;28;20344;-79
2021/11/14 10:04:19;;;;;;;;;;;;;;;13.70;100.00;100019.63;5096421;28;20068;-80
2021/11/14 10:07:02;;;;;;;;;;;;;;;13.63;100.00;100022.56;5114038;28;19924;-79
2021/11/14 10:09:33;;;;;;;;;;;;;;;14.13;100.00;100020.63;5114352;28;20022;-80
2021/11/14 10:12:20;;;;;;;;;;;;;;;13.29;100.00;100021.75;5112870;28;19931;-79
2021/11/14 10:14:50;;;;;;;;;;;;;;;13.48;100.00;100024.72;5095778;28;20382;-78
2021/11/14 10:17:23;;;;;;;;;;;;;;;13.55;100.00;100024.66;5077502;28;20010;-78
2021/11/14 10:20:11;;;;;;;;;;;;;;;13.53;100.00;100029.88;5095331;28;20298;-78
2021/11/14 10:22:40;;;;;;;;;;;;;;;13.13;100.00;100022.34;5113632;28;20561;-75
2021/11/14 10:25:09;;;;;;;;;;;;;;;13.18;100.00;100026.69;5114079;28;19937;-79
2021/11/14 10:27:36;;;;;;;;;;;;;;;13.52;100.00;100033.13;5096120;28;19924;-80
2021/11/14 10:30:06;;;;;;;;;;;;;;;13.79;100.00;100033.97;5095217;28;20018;-80
2021/11/14 10:32:33;;;;;;;;;;;;;;;14.08;100.00;100035.97;5103249;28;19955;-80
2021/11/14 10:35:02;;;;;;;;;;;;;;;14.06;100.00;100034.78;5086659;28;19932;-78
2021/11/14 10:37:30;;;;;;;;;;;;;;;14.15;100.00;100038.66;5101098;28;19924;-77
2021/11/14 10:40:00;;;;;;;;;;;;;;;14.08;100.00;100035.97;5062161;28;20014;-80
2021/11/14 10:42:28;;;;;;;;;;;;;;;13.94;100.00;100040.97;5078786;28;19924;-80
2021/11/14 10:44:58;;;;;;;;;;;;;;;13.76;100.00;100051.66;5078686;28;19931;-80
2021/11/14 10:47:27;;;;;;;;;;;;;;;14.05;100.00;100042.44;5078564;28;20302;-80
2021/11/14 10:49:59;;;;;;;;;;;;;;;13.96;100.00;100049.78;5078673;28;19925;-80
2021/11/14 10:52:27;;;;;;;;;;;;;;;13.93;100.00;100047.81;5078642;28;20287;-80
2021/11/14 10:54:56;;;;;;;;;;;;;;;14.29;100.00;100040.47;5096290;28;19925;-80
2021/11/14 10:57:27;;;;;;;;;;;;;;;14.07;100.00;100039.19;5078554;28;19977;-80
2021/11/14 10:59:54;;;;;;;;;;;;;;;14.20;100.00;100037.38;5096466;28;20022;-79
2021/11/14 11:02:22;;;;;;;;;;;;;;;14.21;100.00;100038.97;5078037;28;19931;-80
2021/11/14 11:04:51;;;;;;;;;;;;;;;14.45;100.00;100049.06;5061656;28;19925;-80
2021/11/14 11:07:18;;;;;;;;;;;;;;;14.26;100.00;100041.34;5062044;28;20348;-80
2021/11/14 11:09:53;;;;;;;;;;;;;;;13.70;100.00;100036.50;5078590;28;19924;-80
2021/11/14 11:12:21;;;;;;;;;;;;;;;13.65;100.00;100040.56;5096405;28;19931;-80
2021/11/14 11:14:52;;;;;;;;;;;;;;;13.67;100.00;100049.38;5078189;28;19924;-80
2021/11/14 11:17:19;;;;;;;;;;;;;;;13.64;100.00;100046.59;5096375;28;19944;-80
2021/11/14 11:19:47;;;;;;;;;;;;;;;13.77;100.00;100047.63;5077771;28;19924;-80
2021/11/14 11:22:14;;;;;;;;;;;;;;;13.96;100.00;100055.41;5078012;28;20375;-80
2021/11/14 11:24:49;;;;;;;;;;;;;;;14.19;100.00;100053.44;5061448;28;19924;-80
2021/11/14 11:27:16;;;;;;;;;;;;;;;13.81;100.00;100059.63;5096206;28;19928;-79
2021/11/14 11:29:43;;;;;;;;;;;;;;;13.79;100.00;100057.22;5077719;28;19932;-80
2021/11/14 11:32:12;;;;;;;;;;;;;;;13.74;100.00;100066.13;5095928;28;19930;-80
2021/11/14 11:34:41;;;;;;;;;;;;;;;13.60;100.00;100054.28;5095854;28;19924;-80
2021/11/14 11:37:09;;;;;;;;;;;;;;;13.72;100.00;100068.53;5095651;28;19924;-80
2021/11/14 11:39:37;;;;;;;;;;;;;;;13.94;100.00;100063.44;5095775;28;19931;-80
2021/11/14 11:42:04;;;;;;;;;;;;;;;13.88;100.00;100059.53;5103978;28;19927;-78
2021/11/14 11:44:42;;;;;;;;;;;;;;;13.81;100.00;100059.63;5105159;28;19931;-76
2021/11/14 11:47:12;;;;;;;;;;;;;;;13.81;100.00;100071.63;5105858;28;20405;-77
2021/11/14 11:49:42;;;;;;;;;;;;;;;13.58;100.00;100062.31;5108709;28;19966;-77
2021/11/14 11:52:17;;;;;;;;;;;;;;;13.89;100.00;100061.09;5071998;28;19924;-77
2021/11/14 11:54:48;;;;;;;;;;;;;;;13.85;100.00;100065.97;5110029;28;19986;-77
2021/11/14 11:57:16;;;;;;;;;;;;;;;14.15;100.00;100060.34;5089794;28;19928;-78
2021/11/14 11:59:44;;;;;;;;;;;;;;;14.46;100.00;100056.28;5109075;28;19931;-81
2021/11/14 12:02:14;;;;;;;;;;;;;;;14.73;100.00;100059.84;5086315;28;20355;-81
2021/11/14 12:04:45;;;;;;;;;;;;;;;14.72;100.00;100057.47;5107357;28;20630;-81
2021/11/14 12:07:15;;;;;;;;;;;;;;;14.64;100.00;100055.97;5104541;28;19927;-81
2021/11/14 12:09:44;;;;;;;;;;;;;;;14.88;100.00;100049.94;5074960;28;20343;-81
2021/11/14 12:12:19;;;;;;;;;;;;;;;14.84;100.00;100049.22;5107760;28;19931;-82
2021/11/14 12:14:46;;;;;;;;;;;;;;;14.66;100.00;100048.69;5109609;28;20386;-80
2021/11/14 12:17:23;;;;;;;;;;;;;;;14.91;100.00;100054.72;5104541;28;19932;-80
2021/11/14 12:19:51;;;;;;;;;;;;;;;14.84;100.00;100043.59;5099995;28;19923;-80
2021/11/14 12:22:19;;;;;;;;;;;;;;;14.50;100.00;100051.38;5092660;28;19963;-80
2021/11/14 12:24:50;;;;;;;;;;;;;;;14.39;100.00;100057.19;5110735;28;19923;-80
2021/11/14 12:27:23;;;;;;;;;;;;;;;14.68;100.00;100051.88;5088307;28;20385;-81
2021/11/14 12:29:58;;;;;;;;;;;;;;;14.41;100.00;100048.31;5090253;28;19924;-80
2021/11/14 12:32:38;;;;;;;;;;;;;;;14.60;100.00;100044.78;5099085;28;20024;-79
2021/11/14 12:35:07;;;;;;;;;;;;;;;14.58;100.00;100047.25;5088116;28;20002;-80
2021/11/14 12:37:44;;;;;;;;;;;;;;;14.72;100.00;100041.41;5088829;28;19932;-80
2021/11/14 12:40:13;;;;;;;;;;;;;;;14.58;100.00;100041.63;5091430;28;19928;-79
2021/11/14 12:42:41;;;;;;;;;;;;;;;14.40;100.00;100041.13;5093182;28;19950;-79
2021/11/14 12:45:08;;;;;;;;;;;;;;;14.53;100.00;100042.09;5106366;28;19924;-79